sensor_id;sensor_type;location;lat;lon;timestamp;P1;durP1;ratioP1;P2;durP2;ratioP2
28934;SDS011;16044;52.726;-2.108;2023-04-15T00:01:02;37.85;;;25.63;;
28934;SDS011;16044;52.726;-2.108;2023-04-15T00:03:30;36.55;;;24.92;;
28934;SDS011;16044;52.726;-2.108;2023-04-15T00:05:57;32.22;;;22.92;;
28934;SDS011;16044;52.726;-2.108;2023-04-15T00:08:25;33.38;;;22.58;;
28934;SDS011;16044;52.726;-2.108;2023-04-15T00:10:52;30.95;;;22.42;;
28934;SDS011;16044;52.726;-2.108;2023-04-15T00:13:19;32.28;;;23.10;;
28934;SDS011;16044;52.726;-2.108;2023-04-15T00:15:46;34.03;;;22.52;;
28934;SDS011;16044;52.726;-2.108;2023-04-15T00:18:14;33.13;;;23.35;;
28934;SDS011;16044;52.726;-2.108;2023-04-15T00:20:41;30.15;;;22.70;;
28934;SDS011;16044;52.726;-2.108;2023-04-15T00:23:08;32.10;;;23.42;;
28934;SDS011;16044;52.726;-2.108;2023-04-15T00:25:34;29.25;;;22.63;;
28934;SDS011;16044;52.726;-2.108;2023-04-15T00:28:02;36.28;;;25.95;;
28934;SDS011;16044;52.726;-2.108;2023-04-15T00:30:29;55.20;;;34.17;;
28934;SDS011;16044;52.726;-2.108;2023-04-15T00:32:56;42.45;;;28.83;;
28934;SDS011;16044;52.726;-2.108;2023-04-15T00:35:23;32.92;;;22.75;;
28934;SDS011;16044;52.726;-2.108;2023-04-15T00:37:50;27.35;;;21.17;;
28934;SDS011;16044;52.726;-2.108;2023-04-15T00:40:18;30.35;;;21.10;;
28934;SDS011;16044;52.726;-2.108;2023-04-15T00:42:47;25.85;;;20.15;;
28934;SDS011;16044;52.726;-2.108;2023-04-15T00:45:14;27.05;;;20.50;;
28934;SDS011;16044;52.726;-2.108;2023-04-15T00:47:41;26.38;;;19.73;;
28934;SDS011;16044;52.726;-2.108;2023-04-15T00:50:10;26.60;;;20.83;;
28934;SDS011;16044;52.726;-2.108;2023-04-15T00:52:38;24.67;;;18.83;;
28934;SDS011;16044;52.726;-2.108;2023-04-15T00:55:06;26.05;;;19.52;;
28934;SDS011;16044;52.726;-2.108;2023-04-15T00:57:35;26.63;;;19.90;;
28934;SDS011;16044;52.726;-2.108;2023-04-15T01:00:02;30.77;;;22.80;;
28934;SDS011;16044;52.726;-2.108;2023-04-15T01:02:33;27.48;;;22.00;;
28934;SDS011;16044;52.726;-2.108;2023-04-15T01:05:02;29.10;;;21.65;;
28934;SDS011;16044;52.726;-2.108;2023-04-15T01:07:30;32.15;;;23.70;;
28934;SDS011;16044;52.726;-2.108;2023-04-15T01:09:57;32.78;;;23.80;;
28934;SDS011;16044;52.726;-2.108;2023-04-15T01:12:25;31.08;;;22.60;;
28934;SDS011;16044;52.726;-2.108;2023-04-15T01:14:54;32.88;;;24.50;;
28934;SDS011;16044;52.726;-2.108;2023-04-15T01:17:21;35.50;;;24.48;;
28934;SDS011;16044;52.726;-2.108;2023-04-15T01:19:50;32.72;;;24.00;;
28934;SDS011;16044;52.726;-2.108;2023-04-15T01:22:18;31.77;;;22.90;;
28934;SDS011;16044;52.726;-2.108;2023-04-15T01:24:48;34.00;;;24.15;;
28934;SDS011;16044;52.726;-2.108;2023-04-15T01:27:27;36.90;;;25.63;;
28934;SDS011;16044;52.726;-2.108;2023-04-15T01:29:55;38.42;;;25.02;;
28934;SDS011;16044;52.726;-2.108;2023-04-15T01:32:23;37.38;;;25.02;;
28934;SDS011;16044;52.726;-2.108;2023-04-15T01:34:50;40.65;;;26.67;;
28934;SDS011;16044;52.726;-2.108;2023-04-15T01:37:17;38.53;;;24.92;;
28934;SDS011;16044;52.726;-2.108;2023-04-15T01:39:44;36.83;;;25.73;;
28934;SDS011;16044;52.726;-2.108;2023-04-15T01:42:11;38.03;;;25.15;;
28934;SDS011;16044;52.726;-2.108;2023-04-15T01:44:38;45.58;;;30.75;;
28934;SDS011;16044;52.726;-2.108;2023-04-15T01:47:05;51.35;;;32.83;;
28934;SDS011;16044;52.726;-2.108;2023-04-15T01:49:32;43.75;;;28.70;;
28934;SDS011;16044;52.726;-2.108;2023-04-15T01:52:00;41.08;;;28.13;;
28934;SDS011;16044;52.726;-2.108;2023-04-15T01:54:27;38.88;;;26.00;;
28934;SDS011;16044;52.726;-2.108;2023-04-15T01:56:54;48.00;;;31.38;;
28934;SDS011;16044;52.726;-2.108;2023-04-15T01:59:22;42.28;;;26.73;;
28934;SDS011;16044;52.726;-2.108;2023-04-15T02:01:49;45.03;;;30.20;;
28934;SDS011;16044;52.726;-2.108;2023-04-15T02:04:16;42.90;;;27.75;;
28934;SDS011;16044;52.726;-2.108;2023-04-15T02:06:43;41.63;;;28.67;;
28934;SDS011;16044;52.726;-2.108;2023-04-15T02:09:11;59.47;;;34.85;;
28934;SDS011;16044;52.726;-2.108;2023-04-15T02:11:38;54.28;;;34.50;;
28934;SDS011;16044;52.726;-2.108;2023-04-15T02:14:05;56.72;;;34.58;;
28934;SDS011;16044;52.726;-2.108;2023-04-15T02:16:32;52.15;;;32.50;;
28934;SDS011;16044;52.726;-2.108;2023-04-15T02:19:00;46.33;;;29.75;;
28934;SDS011;16044;52.726;-2.108;2023-04-15T02:21:27;44.40;;;28.15;;
28934;SDS011;16044;52.726;-2.108;2023-04-15T02:23:55;46.00;;;29.25;;
28934;SDS011;16044;52.726;-2.108;2023-04-15T02:26:22;45.30;;;29.98;;
28934;SDS011;16044;52.726;-2.108;2023-04-15T02:28:50;48.63;;;30.63;;
28934;SDS011;16044;52.726;-2.108;2023-04-15T02:31:17;48.55;;;30.08;;
28934;SDS011;16044;52.726;-2.108;2023-04-15T02:33:44;39.72;;;26.25;;
28934;SDS011;16044;52.726;-2.108;2023-04-15T02:36:12;43.17;;;27.73;;
28934;SDS011;16044;52.726;-2.108;2023-04-15T02:38:39;46.50;;;29.50;;
28934;SDS011;16044;52.726;-2.108;2023-04-15T02:41:11;45.22;;;28.38;;
28934;SDS011;16044;52.726;-2.108;2023-04-15T02:43:38;49.97;;;31.08;;
28934;SDS011;16044;52.726;-2.108;2023-04-15T02:46:05;60.85;;;34.25;;
28934;SDS011;16044;52.726;-2.108;2023-04-15T02:48:32;54.88;;;32.72;;
28934;SDS011;16044;52.726;-2.108;2023-04-15T02:51:12;60.88;;;36.67;;
28934;SDS011;16044;52.726;-2.108;2023-04-15T02:53:48;66.18;;;38.83;;
28934;SDS011;16044;52.726;-2.108;2023-04-15T02:56:16;72.05;;;40.25;;
28934;SDS011;16044;52.726;-2.108;2023-04-15T02:58:44;65.25;;;39.30;;
28934;SDS011;16044;52.726;-2.108;2023-04-15T03:01:11;78.57;;;42.28;;
28934;SDS011;16044;52.726;-2.108;2023-04-15T03:03:39;68.75;;;40.45;;
28934;SDS011;16044;52.726;-2.108;2023-04-15T03:06:06;75.75;;;43.15;;
28934;SDS011;16044;52.726;-2.108;2023-04-15T03:08:34;78.22;;;43.55;;
28934;SDS011;16044;52.726;-2.108;2023-04-15T03:11:01;83.05;;;45.97;;
28934;SDS011;16044;52.726;-2.108;2023-04-15T03:13:29;70.45;;;40.13;;
28934;SDS011;16044;52.726;-2.108;2023-04-15T03:15:56;63.28;;;36.40;;
28934;SDS011;16044;52.726;-2.108;2023-04-15T03:18:23;58.45;;;35.25;;
28934;SDS011;16044;52.726;-2.108;2023-04-15T03:20:51;55.88;;;33.03;;
28934;SDS011;16044;52.726;-2.108;2023-04-15T03:23:18;47.40;;;29.92;;
28934;SDS011;16044;52.726;-2.108;2023-04-15T03:25:45;42.83;;;26.92;;
28934;SDS011;16044;52.726;-2.108;2023-04-15T03:28:12;50.72;;;29.92;;
28934;SDS011;16044;52.726;-2.108;2023-04-15T03:30:39;49.08;;;31.75;;
28934;SDS011;16044;52.726;-2.108;2023-04-15T03:33:06;51.08;;;30.48;;
28934;SDS011;16044;52.726;-2.108;2023-04-15T03:35:33;64.18;;;37.40;;
28934;SDS011;16044;52.726;-2.108;2023-04-15T03:38:00;59.85;;;34.45;;
28934;SDS011;16044;52.726;-2.108;2023-04-15T03:40:27;57.03;;;32.60;;
28934;SDS011;16044;52.726;-2.108;2023-04-15T03:42:54;48.50;;;29.73;;
28934;SDS011;16044;52.726;-2.108;2023-04-15T03:45:21;46.75;;;27.70;;
28934;SDS011;16044;52.726;-2.108;2023-04-15T03:47:49;48.30;;;27.25;;
28934;SDS011;16044;52.726;-2.108;2023-04-15T03:50:16;47.42;;;26.70;;
28934;SDS011;16044;52.726;-2.108;2023-04-15T03:52:43;42.28;;;25.67;;
28934;SDS011;16044;52.726;-2.108;2023-04-15T03:55:11;41.38;;;26.00;;
28934;SDS011;16044;52.726;-2.108;2023-04-15T03:57:38;39.25;;;25.08;;
28934;SDS011;16044;52.726;-2.108;2023-04-15T04:00:05;43.38;;;26.13;;
28934;SDS011;16044;52.726;-2.108;2023-04-15T04:02:34;48.78;;;26.27;;
28934;SDS011;16044;52.726;-2.108;2023-04-15T04:05:02;45.53;;;25.20;;
28934;SDS011;16044;52.726;-2.108;2023-04-15T04:07:29;44.75;;;28.05;;
28934;SDS011;16044;52.726;-2.108;2023-04-15T04:09:57;53.65;;;30.30;;
28934;SDS011;16044;52.726;-2.108;2023-04-15T04:12:24;48.70;;;29.85;;
28934;SDS011;16044;52.726;-2.108;2023-04-15T04:14:51;44.45;;;28.00;;
28934;SDS011;16044;52.726;-2.108;2023-04-15T04:17:18;50.25;;;30.13;;
28934;SDS011;16044;52.726;-2.108;2023-04-15T04:19:46;58.13;;;34.50;;
28934;SDS011;16044;52.726;-2.108;2023-04-15T04:22:13;63.90;;;36.17;;
28934;SDS011;16044;52.726;-2.108;2023-04-15T04:24:39;75.25;;;41.22;;
28934;SDS011;16044;52.726;-2.108;2023-04-15T04:27:06;83.07;;;47.33;;
28934;SDS011;16044;52.726;-2.108;2023-04-15T04:29:33;81.63;;;43.75;;
28934;SDS011;16044;52.726;-2.108;2023-04-15T04:32:00;60.85;;;35.17;;
28934;SDS011;16044;52.726;-2.108;2023-04-15T04:34:27;52.28;;;31.83;;
28934;SDS011;16044;52.726;-2.108;2023-04-15T04:36:54;50.22;;;29.88;;
28934;SDS011;16044;52.726;-2.108;2023-04-15T04:39:21;50.67;;;29.25;;
28934;SDS011;16044;52.726;-2.108;2023-04-15T04:41:48;52.53;;;29.92;;
28934;SDS011;16044;52.726;-2.108;2023-04-15T04:44:17;53.45;;;31.15;;
28934;SDS011;16044;52.726;-2.108;2023-04-15T04:46:44;42.22;;;27.27;;
28934;SDS011;16044;52.726;-2.108;2023-04-15T04:49:11;44.75;;;26.73;;
28934;SDS011;16044;52.726;-2.108;2023-04-15T04:51:38;53.90;;;31.27;;
28934;SDS011;16044;52.726;-2.108;2023-04-15T04:54:05;52.85;;;30.85;;
28934;SDS011;16044;52.726;-2.108;2023-04-15T04:56:33;49.28;;;30.00;;
28934;SDS011;16044;52.726;-2.108;2023-04-15T04:59:00;57.75;;;33.40;;
28934;SDS011;16044;52.726;-2.108;2023-04-15T05:01:27;60.05;;;34.63;;
28934;SDS011;16044;52.726;-2.108;2023-04-15T05:03:54;58.95;;;35.38;;
28934;SDS011;16044;52.726;-2.108;2023-04-15T05:06:22;58.00;;;33.28;;
28934;SDS011;16044;52.726;-2.108;2023-04-15T05:08:49;57.53;;;33.75;;
28934;SDS011;16044;52.726;-2.108;2023-04-15T05:11:16;61.70;;;36.20;;
28934;SDS011;16044;52.726;-2.108;2023-04-15T05:13:43;52.00;;;30.48;;
28934;SDS011;16044;52.726;-2.108;2023-04-15T05:16:10;168.25;;;43.10;;
28934;SDS011;16044;52.726;-2.108;2023-04-15T05:18:37;181.35;;;38.65;;
28934;SDS011;16044;52.726;-2.108;2023-04-15T05:21:04;302.38;;;42.95;;
28934;SDS011;16044;52.726;-2.108;2023-04-15T05:23:32;468.85;;;46.20;;
28934;SDS011;16044;52.726;-2.108;2023-04-15T05:25:59;406.65;;;43.85;;
28934;SDS011;16044;52.726;-2.108;2023-04-15T05:28:26;408.45;;;46.92;;
28934;SDS011;16044;52.726;-2.108;2023-04-15T05:30:53;170.50;;;38.55;;
28934;SDS011;16044;52.726;-2.108;2023-04-15T05:33:20;339.88;;;41.65;;
28934;SDS011;16044;52.726;-2.108;2023-04-15T05:35:48;206.07;;;38.70;;
28934;SDS011;16044;52.726;-2.108;2023-04-15T05:38:15;238.52;;;38.45;;
28934;SDS011;16044;52.726;-2.108;2023-04-15T05:40:42;501.90;;;45.50;;
28934;SDS011;16044;52.726;-2.108;2023-04-15T05:43:09;159.32;;;37.72;;
28934;SDS011;16044;52.726;-2.108;2023-04-15T05:45:37;285.58;;;40.05;;
28934;SDS011;16044;52.726;-2.108;2023-04-15T05:48:03;170.20;;;35.95;;
28934;SDS011;16044;52.726;-2.108;2023-04-15T05:50:31;148.25;;;32.72;;
28934;SDS011;16044;52.726;-2.108;2023-04-15T05:52:58;406.90;;;41.20;;
28934;SDS011;16044;52.726;-2.108;2023-04-15T05:55:25;310.05;;;37.20;;
28934;SDS011;16044;52.726;-2.108;2023-04-15T05:57:52;174.50;;;33.33;;
28934;SDS011;16044;52.726;-2.108;2023-04-15T06:00:19;300.10;;;35.97;;
28934;SDS011;16044;52.726;-2.108;2023-04-15T06:02:47;180.35;;;33.72;;
28934;SDS011;16044;52.726;-2.108;2023-04-15T06:05:14;176.65;;;34.40;;
28934;SDS011;16044;52.726;-2.108;2023-04-15T06:07:41;205.80;;;34.35;;
28934;SDS011;16044;52.726;-2.108;2023-04-15T06:10:11;182.13;;;32.83;;
28934;SDS011;16044;52.726;-2.108;2023-04-15T06:12:39;127.28;;;32.15;;
28934;SDS011;16044;52.726;-2.108;2023-04-15T06:15:06;249.75;;;36.35;;
28934;SDS011;16044;52.726;-2.108;2023-04-15T06:17:35;185.85;;;34.50;;
28934;SDS011;16044;52.726;-2.108;2023-04-15T06:20:03;225.05;;;36.92;;
28934;SDS011;16044;52.726;-2.108;2023-04-15T06:22:30;254.38;;;39.42;;
28934;SDS011;16044;52.726;-2.108;2023-04-15T06:24:57;169.35;;;39.25;;
28934;SDS011;16044;52.726;-2.108;2023-04-15T06:27:24;425.00;;;45.40;;
28934;SDS011;16044;52.726;-2.108;2023-04-15T06:29:51;147.38;;;36.22;;
28934;SDS011;16044;52.726;-2.108;2023-04-15T06:32:18;82.78;;;31.58;;
28934;SDS011;16044;52.726;-2.108;2023-04-15T06:34:45;126.00;;;37.55;;
28934;SDS011;16044;52.726;-2.108;2023-04-15T06:37:12;154.25;;;36.28;;
28934;SDS011;16044;52.726;-2.108;2023-04-15T06:39:41;199.70;;;40.42;;
28934;SDS011;16044;52.726;-2.108;2023-04-15T06:42:10;129.88;;;38.30;;
28934;SDS011;16044;52.726;-2.108;2023-04-15T06:44:37;91.70;;;32.40;;
28934;SDS011;16044;52.726;-2.108;2023-04-15T06:47:05;118.53;;;34.45;;
28934;SDS011;16044;52.726;-2.108;2023-04-15T06:49:32;206.25;;;39.92;;
28934;SDS011;16044;52.726;-2.108;2023-04-15T06:51:59;103.93;;;33.85;;
28934;SDS011;16044;52.726;-2.108;2023-04-15T06:54:27;108.88;;;34.15;;
28934;SDS011;16044;52.726;-2.108;2023-04-15T06:56:54;160.43;;;37.70;;
28934;SDS011;16044;52.726;-2.108;2023-04-15T06:59:21;102.85;;;35.83;;
28934;SDS011;16044;52.726;-2.108;2023-04-15T07:01:48;155.05;;;39.13;;
28934;SDS011;16044;52.726;-2.108;2023-04-15T07:04:15;87.93;;;34.08;;
28934;SDS011;16044;52.726;-2.108;2023-04-15T07:06:42;127.15;;;37.08;;
28934;SDS011;16044;52.726;-2.108;2023-04-15T07:09:09;102.55;;;37.20;;
28934;SDS011;16044;52.726;-2.108;2023-04-15T07:11:37;120.32;;;36.38;;
28934;SDS011;16044;52.726;-2.108;2023-04-15T07:14:04;119.05;;;35.35;;
28934;SDS011;16044;52.726;-2.108;2023-04-15T07:16:31;96.50;;;34.72;;
28934;SDS011;16044;52.726;-2.108;2023-04-15T07:18:58;103.68;;;34.83;;
28934;SDS011;16044;52.726;-2.108;2023-04-15T07:21:25;66.60;;;30.88;;
28934;SDS011;16044;52.726;-2.108;2023-04-15T07:23:53;66.95;;;31.95;;
28934;SDS011;16044;52.726;-2.108;2023-04-15T07:26:20;77.65;;;34.30;;
28934;SDS011;16044;52.726;-2.108;2023-04-15T07:28:47;65.97;;;32.53;;
28934;SDS011;16044;52.726;-2.108;2023-04-15T07:31:15;56.58;;;29.33;;
28934;SDS011;16044;52.726;-2.108;2023-04-15T07:33:43;53.10;;;27.80;;
28934;SDS011;16044;52.726;-2.108;2023-04-15T07:36:10;58.17;;;28.73;;
28934;SDS011;16044;52.726;-2.108;2023-04-15T07:38:37;52.25;;;26.55;;
28934;SDS011;16044;52.726;-2.108;2023-04-15T07:41:05;55.35;;;27.58;;
28934;SDS011;16044;52.726;-2.108;2023-04-15T07:43:32;53.78;;;29.30;;
28934;SDS011;16044;52.726;-2.108;2023-04-15T07:45:59;52.05;;;27.92;;
28934;SDS011;16044;52.726;-2.108;2023-04-15T07:48:26;53.67;;;28.73;;
28934;SDS011;16044;52.726;-2.108;2023-04-15T07:50:53;45.63;;;25.38;;
28934;SDS011;16044;52.726;-2.108;2023-04-15T07:53:19;46.30;;;25.77;;
28934;SDS011;16044;52.726;-2.108;2023-04-15T07:55:46;43.63;;;23.80;;
28934;SDS011;16044;52.726;-2.108;2023-04-15T07:58:13;46.80;;;25.92;;
28934;SDS011;16044;52.726;-2.108;2023-04-15T08:00:41;38.55;;;22.83;;
28934;SDS011;16044;52.726;-2.108;2023-04-15T08:03:07;40.65;;;24.38;;
28934;SDS011;16044;52.726;-2.108;2023-04-15T08:05:35;39.22;;;23.75;;
28934;SDS011;16044;52.726;-2.108;2023-04-15T08:08:02;40.08;;;24.33;;
28934;SDS011;16044;52.726;-2.108;2023-04-15T08:10:29;41.47;;;23.90;;
28934;SDS011;16044;52.726;-2.108;2023-04-15T08:12:56;37.17;;;23.00;;
28934;SDS011;16044;52.726;-2.108;2023-04-15T08:15:23;34.70;;;22.17;;
28934;SDS011;16044;52.726;-2.108;2023-04-15T08:17:51;36.83;;;21.30;;
28934;SDS011;16044;52.726;-2.108;2023-04-15T08:20:18;32.80;;;21.05;;
28934;SDS011;16044;52.726;-2.108;2023-04-15T08:22:46;34.75;;;21.70;;
28934;SDS011;16044;52.726;-2.108;2023-04-15T08:25:17;33.67;;;22.35;;
28934;SDS011;16044;52.726;-2.108;2023-04-15T08:27:45;34.30;;;22.65;;
28934;SDS011;16044;52.726;-2.108;2023-04-15T08:30:12;27.52;;;19.13;;
28934;SDS011;16044;52.726;-2.108;2023-04-15T08:32:41;28.52;;;18.50;;
28934;SDS011;16044;52.726;-2.108;2023-04-15T08:35:11;33.13;;;21.45;;
28934;SDS011;16044;52.726;-2.108;2023-04-15T08:37:39;29.13;;;20.88;;
28934;SDS011;16044;52.726;-2.108;2023-04-15T08:40:06;28.13;;;18.95;;
28934;SDS011;16044;52.726;-2.108;2023-04-15T08:42:43;27.45;;;18.27;;
28934;SDS011;16044;52.726;-2.108;2023-04-15T08:45:14;23.35;;;15.98;;
28934;SDS011;16044;52.726;-2.108;2023-04-15T08:47:43;24.02;;;15.95;;
28934;SDS011;16044;52.726;-2.108;2023-04-15T08:50:12;21.75;;;15.18;;
28934;SDS011;16044;52.726;-2.108;2023-04-15T08:52:40;25.35;;;16.88;;
28934;SDS011;16044;52.726;-2.108;2023-04-15T08:55:08;24.08;;;16.90;;
28934;SDS011;16044;52.726;-2.108;2023-04-15T08:57:36;24.90;;;18.00;;
28934;SDS011;16044;52.726;-2.108;2023-04-15T09:00:05;23.00;;;15.40;;
28934;SDS011;16044;52.726;-2.108;2023-04-15T09:02:35;20.27;;;15.05;;
28934;SDS011;16044;52.726;-2.108;2023-04-15T09:05:02;19.83;;;15.02;;
28934;SDS011;16044;52.726;-2.108;2023-04-15T09:07:32;16.42;;;12.38;;
28934;SDS011;16044;52.726;-2.108;2023-04-15T09:10:02;16.13;;;11.88;;
28934;SDS011;16044;52.726;-2.108;2023-04-15T09:12:30;15.43;;;11.45;;
28934;SDS011;16044;52.726;-2.108;2023-04-15T09:15:03;15.48;;;11.45;;
28934;SDS011;16044;52.726;-2.108;2023-04-15T09:17:31;14.02;;;11.07;;
28934;SDS011;16044;52.726;-2.108;2023-04-15T09:20:09;14.52;;;11.73;;
28934;SDS011;16044;52.726;-2.108;2023-04-15T09:22:40;15.30;;;11.25;;
28934;SDS011;16044;52.726;-2.108;2023-04-15T09:27:59;14.27;;;11.13;;
28934;SDS011;16044;52.726;-2.108;2023-04-15T09:30:27;14.10;;;10.93;;
28934;SDS011;16044;52.726;-2.108;2023-04-15T09:32:55;14.73;;;9.55;;
28934;SDS011;16044;52.726;-2.108;2023-04-15T09:35:25;11.77;;;9.15;;
28934;SDS011;16044;52.726;-2.108;2023-04-15T09:38:02;9.63;;;7.88;;
28934;SDS011;16044;52.726;-2.108;2023-04-15T09:40:41;8.98;;;7.25;;
28934;SDS011;16044;52.726;-2.108;2023-04-15T09:43:09;10.75;;;7.85;;
28934;SDS011;16044;52.726;-2.108;2023-04-15T09:45:38;9.40;;;7.47;;
28934;SDS011;16044;52.726;-2.108;2023-04-15T09:48:15;9.30;;;7.80;;
28934;SDS011;16044;52.726;-2.108;2023-04-15T09:50:52;9.25;;;7.38;;
28934;SDS011;16044;52.726;-2.108;2023-04-15T09:53:20;8.63;;;7.03;;
28934;SDS011;16044;52.726;-2.108;2023-04-15T09:58:24;9.25;;;6.45;;
28934;SDS011;16044;52.726;-2.108;2023-04-15T10:00:57;7.72;;;6.18;;
28934;SDS011;16044;52.726;-2.108;2023-04-15T10:03:28;10.35;;;6.55;;
28934;SDS011;16044;52.726;-2.108;2023-04-15T10:06:01;8.90;;;6.50;;
28934;SDS011;16044;52.726;-2.108;2023-04-15T10:08:32;8.38;;;6.63;;
28934;SDS011;16044;52.726;-2.108;2023-04-15T10:11:00;10.05;;;6.85;;
28934;SDS011;16044;52.726;-2.108;2023-04-15T10:13:30;11.52;;;7.40;;
28934;SDS011;16044;52.726;-2.108;2023-04-15T10:16:07;8.85;;;6.95;;
28934;SDS011;16044;52.726;-2.108;2023-04-15T10:18:40;10.95;;;7.68;;
28934;SDS011;16044;52.726;-2.108;2023-04-15T10:21:10;12.48;;;7.68;;
28934;SDS011;16044;52.726;-2.108;2023-04-15T10:23:44;10.02;;;7.30;;
28934;SDS011;16044;52.726;-2.108;2023-04-15T10:26:12;8.10;;;6.97;;
28934;SDS011;16044;52.726;-2.108;2023-04-15T10:28:43;10.10;;;6.72;;
28934;SDS011;16044;52.726;-2.108;2023-04-15T10:31:12;9.20;;;7.18;;
28934;SDS011;16044;52.726;-2.108;2023-04-15T10:33:40;9.27;;;7.50;;
28934;SDS011;16044;52.726;-2.108;2023-04-15T10:36:10;12.93;;;8.00;;
28934;SDS011;16044;52.726;-2.108;2023-04-15T10:38:42;11.73;;;7.15;;
28934;SDS011;16044;52.726;-2.108;2023-04-15T10:44:01;9.32;;;6.78;;
28934;SDS011;16044;52.726;-2.108;2023-04-15T10:46:34;9.13;;;6.70;;
28934;SDS011;16044;52.726;-2.108;2023-04-15T10:49:15;9.98;;;6.20;;
28934;SDS011;16044;52.726;-2.108;2023-04-15T10:51:52;8.95;;;6.28;;
28934;SDS011;16044;52.726;-2.108;2023-04-15T10:56:51;7.30;;;5.88;;
28934;SDS011;16044;52.726;-2.108;2023-04-15T10:59:38;8.63;;;6.00;;
28934;SDS011;16044;52.726;-2.108;2023-04-15T11:02:45;8.43;;;6.00;;
28934;SDS011;16044;52.726;-2.108;2023-04-15T11:05:21;8.27;;;6.10;;
28934;SDS011;16044;52.726;-2.108;2023-04-15T11:08:09;18.13;;;6.18;;
28934;SDS011;16044;52.726;-2.108;2023-04-15T11:15:38;7.30;;;5.32;;
28934;SDS011;16044;52.726;-2.108;2023-04-15T11:18:19;8.43;;;6.30;;
28934;SDS011;16044;52.726;-2.108;2023-04-15T11:20:49;11.55;;;6.95;;
28934;SDS011;16044;52.726;-2.108;2023-04-15T11:26:14;7.90;;;5.88;;
28934;SDS011;16044;52.726;-2.108;2023-04-15T11:28:42;6.88;;;5.40;;
28934;SDS011;16044;52.726;-2.108;2023-04-15T11:31:14;8.00;;;5.68;;
28934;SDS011;16044;52.726;-2.108;2023-04-15T11:33:45;7.70;;;5.50;;
28934;SDS011;16044;52.726;-2.108;2023-04-15T11:36:29;8.32;;;5.68;;
28934;SDS011;16044;52.726;-2.108;2023-04-15T11:38:57;7.68;;;5.35;;
28934;SDS011;16044;52.726;-2.108;2023-04-15T11:41:25;7.35;;;5.25;;
28934;SDS011;16044;52.726;-2.108;2023-04-15T11:43:53;7.57;;;4.80;;
28934;SDS011;16044;52.726;-2.108;2023-04-15T11:46:20;8.40;;;5.90;;
28934;SDS011;16044;52.726;-2.108;2023-04-15T11:48:48;7.82;;;5.10;;
28934;SDS011;16044;52.726;-2.108;2023-04-15T11:51:15;9.35;;;5.28;;
28934;SDS011;16044;52.726;-2.108;2023-04-15T11:53:43;7.55;;;5.20;;
28934;SDS011;16044;52.726;-2.108;2023-04-15T11:56:16;8.43;;;5.60;;
28934;SDS011;16044;52.726;-2.108;2023-04-15T11:58:54;6.55;;;4.50;;
28934;SDS011;16044;52.726;-2.108;2023-04-15T12:01:30;7.30;;;5.57;;
28934;SDS011;16044;52.726;-2.108;2023-04-15T12:06:41;8.15;;;5.05;;
28934;SDS011;16044;52.726;-2.108;2023-04-15T12:09:09;8.55;;;5.28;;
28934;SDS011;16044;52.726;-2.108;2023-04-15T12:11:45;8.48;;;5.15;;
28934;SDS011;16044;52.726;-2.108;2023-04-15T12:17:05;6.50;;;4.57;;
28934;SDS011;16044;52.726;-2.108;2023-04-15T12:19:39;6.20;;;4.68;;
28934;SDS011;16044;52.726;-2.108;2023-04-15T12:22:08;6.60;;;4.72;;
28934;SDS011;16044;52.726;-2.108;2023-04-15T12:24:40;6.55;;;4.70;;
28934;SDS011;16044;52.726;-2.108;2023-04-15T12:27:14;6.73;;;4.37;;
28934;SDS011;16044;52.726;-2.108;2023-04-15T12:29:42;6.40;;;4.47;;
28934;SDS011;16044;52.726;-2.108;2023-04-15T12:32:10;6.80;;;4.68;;
28934;SDS011;16044;52.726;-2.108;2023-04-15T12:34:42;7.68;;;4.70;;
28934;SDS011;16044;52.726;-2.108;2023-04-15T12:37:19;7.75;;;4.32;;
28934;SDS011;16044;52.726;-2.108;2023-04-15T12:39:48;6.80;;;4.40;;
28934;SDS011;16044;52.726;-2.108;2023-04-15T12:42:16;7.40;;;4.82;;
28934;SDS011;16044;52.726;-2.108;2023-04-15T12:44:44;5.65;;;4.82;;
28934;SDS011;16044;52.726;-2.108;2023-04-15T12:47:11;7.32;;;4.82;;
28934;SDS011;16044;52.726;-2.108;2023-04-15T12:49:39;6.30;;;4.75;;
28934;SDS011;16044;52.726;-2.108;2023-04-15T12:52:06;6.70;;;4.72;;
28934;SDS011;16044;52.726;-2.108;2023-04-15T12:54:34;8.05;;;4.75;;
28934;SDS011;16044;52.726;-2.108;2023-04-15T12:57:02;7.70;;;4.55;;
28934;SDS011;16044;52.726;-2.108;2023-04-15T12:59:32;6.03;;;4.68;;
28934;SDS011;16044;52.726;-2.108;2023-04-15T13:02:00;8.70;;;4.22;;
28934;SDS011;16044;52.726;-2.108;2023-04-15T13:04:29;6.03;;;3.85;;
28934;SDS011;16044;52.726;-2.108;2023-04-15T13:06:57;5.65;;;4.20;;
28934;SDS011;16044;52.726;-2.108;2023-04-15T13:09:24;6.70;;;4.50;;
28934;SDS011;16044;52.726;-2.108;2023-04-15T13:11:51;6.47;;;3.92;;
28934;SDS011;16044;52.726;-2.108;2023-04-15T13:14:18;6.05;;;3.17;;
28934;SDS011;16044;52.726;-2.108;2023-04-15T13:16:45;6.40;;;3.20;;
28934;SDS011;16044;52.726;-2.108;2023-04-15T13:19:12;5.03;;;3.00;;
28934;SDS011;16044;52.726;-2.108;2023-04-15T13:21:40;6.75;;;2.90;;
28934;SDS011;16044;52.726;-2.108;2023-04-15T13:24:07;5.40;;;2.90;;
28934;SDS011;16044;52.726;-2.108;2023-04-15T13:26:35;4.13;;;2.30;;
28934;SDS011;16044;52.726;-2.108;2023-04-15T13:29:02;4.65;;;2.20;;
28934;SDS011;16044;52.726;-2.108;2023-04-15T13:31:29;5.45;;;2.67;;
28934;SDS011;16044;52.726;-2.108;2023-04-15T13:33:56;4.25;;;2.53;;
28934;SDS011;16044;52.726;-2.108;2023-04-15T13:36:23;4.25;;;2.80;;
28934;SDS011;16044;52.726;-2.108;2023-04-15T13:38:50;4.43;;;2.70;;
28934;SDS011;16044;52.726;-2.108;2023-04-15T13:41:17;5.88;;;2.83;;
28934;SDS011;16044;52.726;-2.108;2023-04-15T13:43:45;4.35;;;2.78;;
28934;SDS011;16044;52.726;-2.108;2023-04-15T13:46:12;4.28;;;2.30;;
28934;SDS011;16044;52.726;-2.108;2023-04-15T13:48:40;3.60;;;2.28;;
28934;SDS011;16044;52.726;-2.108;2023-04-15T13:51:07;4.57;;;2.30;;
28934;SDS011;16044;52.726;-2.108;2023-04-15T13:53:34;6.03;;;2.80;;
28934;SDS011;16044;52.726;-2.108;2023-04-15T13:56:07;4.75;;;2.75;;
28934;SDS011;16044;52.726;-2.108;2023-04-15T13:58:36;8.05;;;3.10;;
28934;SDS011;16044;52.726;-2.108;2023-04-15T14:01:04;6.75;;;3.13;;
28934;SDS011;16044;52.726;-2.108;2023-04-15T14:03:35;4.80;;;2.78;;
28934;SDS011;16044;52.726;-2.108;2023-04-15T14:06:06;3.80;;;2.28;;
28934;SDS011;16044;52.726;-2.108;2023-04-15T14:08:33;4.68;;;2.13;;
28934;SDS011;16044;52.726;-2.108;2023-04-15T14:11:00;7.35;;;2.53;;
28934;SDS011;16044;52.726;-2.108;2023-04-15T14:13:27;4.18;;;2.47;;
28934;SDS011;16044;52.726;-2.108;2023-04-15T14:15:55;3.85;;;2.17;;
28934;SDS011;16044;52.726;-2.108;2023-04-15T14:18:22;7.07;;;2.30;;
28934;SDS011;16044;52.726;-2.108;2023-04-15T14:20:49;6.10;;;2.65;;
28934;SDS011;16044;52.726;-2.108;2023-04-15T14:23:17;3.92;;;2.50;;
28934;SDS011;16044;52.726;-2.108;2023-04-15T14:25:44;4.82;;;2.70;;
28934;SDS011;16044;52.726;-2.108;2023-04-15T14:28:13;5.18;;;2.75;;
28934;SDS011;16044;52.726;-2.108;2023-04-15T14:30:40;5.32;;;2.47;;
28934;SDS011;16044;52.726;-2.108;2023-04-15T14:33:08;4.43;;;2.28;;
28934;SDS011;16044;52.726;-2.108;2023-04-15T14:35:35;5.32;;;2.50;;
28934;SDS011;16044;52.726;-2.108;2023-04-15T14:38:02;5.05;;;2.45;;
28934;SDS011;16044;52.726;-2.108;2023-04-15T14:40:29;6.72;;;3.15;;
28934;SDS011;16044;52.726;-2.108;2023-04-15T14:42:56;5.13;;;2.60;;
28934;SDS011;16044;52.726;-2.108;2023-04-15T14:45:23;4.63;;;2.75;;
28934;SDS011;16044;52.726;-2.108;2023-04-15T14:47:50;6.10;;;2.45;;